sensor_id;sensor_type;location;lat;lon;timestamp;P1;durP1;ratioP1;P2;durP2;ratioP2
16822;SDS011;8528;49.976;11.858;2023-08-06T00:00:57;6.90;;;6.30;;
16822;SDS011;8528;49.976;11.858;2023-08-06T00:03:24;7.80;;;6.43;;
16822;SDS011;8528;49.976;11.858;2023-08-06T00:05:51;7.20;;;6.60;;
16822;SDS011;8528;49.976;11.858;2023-08-06T00:08:18;6.80;;;6.20;;
16822;SDS011;8528;49.976;11.858;2023-08-06T00:10:47;6.90;;;6.30;;
16822;SDS011;8528;49.976;11.858;2023-08-06T00:13:15;7.37;;;6.43;;
16822;SDS011;8528;49.976;11.858;2023-08-06T00:15:42;6.67;;;6.07;;
16822;SDS011;8528;49.976;11.858;2023-08-06T00:18:08;7.10;;;6.27;;
16822;SDS011;8528;49.976;11.858;2023-08-06T00:20:38;8.03;;;6.70;;
16822;SDS011;8528;49.976;11.858;2023-08-06T00:23:05;7.30;;;6.20;;
16822;SDS011;8528;49.976;11.858;2023-08-06T00:25:32;7.97;;;7.27;;
16822;SDS011;8528;49.976;11.858;2023-08-06T00:27:59;7.80;;;7.10;;
16822;SDS011;8528;49.976;11.858;2023-08-06T00:30:26;8.10;;;7.30;;
16822;SDS011;8528;49.976;11.858;2023-08-06T00:32:53;7.97;;;6.80;;
16822;SDS011;8528;49.976;11.858;2023-08-06T00:35:20;8.40;;;7.50;;
16822;SDS011;8528;49.976;11.858;2023-08-06T00:37:47;8.97;;;7.97;;
16822;SDS011;8528;49.976;11.858;2023-08-06T00:40:14;9.90;;;8.43;;
16822;SDS011;8528;49.976;11.858;2023-08-06T00:42:41;9.90;;;8.90;;
16822;SDS011;8528;49.976;11.858;2023-08-06T00:45:10;10.03;;;8.70;;
16822;SDS011;8528;49.976;11.858;2023-08-06T00:47:37;11.03;;;9.60;;
16822;SDS011;8528;49.976;11.858;2023-08-06T00:50:06;9.00;;;7.50;;
16822;SDS011;8528;49.976;11.858;2023-08-06T00:52:34;6.87;;;3.80;;
16822;SDS011;8528;49.976;11.858;2023-08-06T00:55:02;7.37;;;3.10;;
16822;SDS011;8528;49.976;11.858;2023-08-06T00:57:29;5.40;;;2.57;;
16822;SDS011;8528;49.976;11.858;2023-08-06T00:59:56;2.63;;;2.17;;
16822;SDS011;8528;49.976;11.858;2023-08-06T01:02:23;3.00;;;2.43;;
16822;SDS011;8528;49.976;11.858;2023-08-06T01:04:50;2.03;;;1.87;;
16822;SDS011;8528;49.976;11.858;2023-08-06T01:15:53;2.40;;;2.20;;
16822;SDS011;8528;49.976;11.858;2023-08-06T01:18:23;2.77;;;2.53;;
16822;SDS011;8528;49.976;11.858;2023-08-06T01:20:50;3.37;;;2.37;;
16822;SDS011;8528;49.976;11.858;2023-08-06T01:23:18;2.40;;;2.20;;
16822;SDS011;8528;49.976;11.858;2023-08-06T01:25:48;2.43;;;2.23;;
16822;SDS011;8528;49.976;11.858;2023-08-06T01:28:24;2.77;;;2.53;;
16822;SDS011;8528;49.976;11.858;2023-08-06T01:30:59;2.50;;;2.30;;
16822;SDS011;8528;49.976;11.858;2023-08-06T01:33:29;3.83;;;2.43;;
16822;SDS011;8528;49.976;11.858;2023-08-06T01:35:58;3.13;;;2.50;;
16822;SDS011;8528;49.976;11.858;2023-08-06T01:38:26;2.90;;;2.30;;
16822;SDS011;8528;49.976;11.858;2023-08-06T01:40:54;3.00;;;2.50;;
16822;SDS011;8528;49.976;11.858;2023-08-06T01:43:21;2.63;;;2.43;;
16822;SDS011;8528;49.976;11.858;2023-08-06T01:45:48;2.40;;;2.20;;
16822;SDS011;8528;49.976;11.858;2023-08-06T01:48:15;2.43;;;2.23;;
16822;SDS011;8528;49.976;11.858;2023-08-06T01:50:41;3.47;;;2.70;;
16822;SDS011;8528;49.976;11.858;2023-08-06T01:53:08;3.00;;;2.77;;
16822;SDS011;8528;49.976;11.858;2023-08-06T01:55:35;3.23;;;2.57;;
16822;SDS011;8528;49.976;11.858;2023-08-06T01:58:02;3.23;;;2.87;;
16822;SDS011;8528;49.976;11.858;2023-08-06T02:00:29;3.30;;;3.00;;
16822;SDS011;8528;49.976;11.858;2023-08-06T02:02:56;4.00;;;3.17;;
16822;SDS011;8528;49.976;11.858;2023-08-06T02:05:23;4.10;;;3.23;;
16822;SDS011;8528;49.976;11.858;2023-08-06T02:07:50;5.00;;;3.10;;
16822;SDS011;8528;49.976;11.858;2023-08-06T02:10:17;3.70;;;2.97;;
16822;SDS011;8528;49.976;11.858;2023-08-06T02:12:43;3.70;;;3.10;;
16822;SDS011;8528;49.976;11.858;2023-08-06T02:15:10;3.47;;;3.17;;
16822;SDS011;8528;49.976;11.858;2023-08-06T02:17:37;4.00;;;3.30;;
16822;SDS011;8528;49.976;11.858;2023-08-06T02:20:04;3.20;;;2.90;;
16822;SDS011;8528;49.976;11.858;2023-08-06T02:22:31;5.30;;;3.17;;
16822;SDS011;8528;49.976;11.858;2023-08-06T02:24:59;3.63;;;2.83;;
16822;SDS011;8528;49.976;11.858;2023-08-06T02:27:26;3.50;;;3.03;;
16822;SDS011;8528;49.976;11.858;2023-08-06T02:29:53;4.70;;;3.23;;
16822;SDS011;8528;49.976;11.858;2023-08-06T02:32:20;3.57;;;3.27;;
16822;SDS011;8528;49.976;11.858;2023-08-06T02:34:47;4.97;;;3.07;;
16822;SDS011;8528;49.976;11.858;2023-08-06T02:37:14;3.17;;;2.97;;
16822;SDS011;8528;49.976;11.858;2023-08-06T02:39:41;4.33;;;3.17;;
16822;SDS011;8528;49.976;11.858;2023-08-06T02:42:08;3.90;;;3.40;;
16822;SDS011;8528;49.976;11.858;2023-08-06T02:44:35;3.47;;;3.17;;
16822;SDS011;8528;49.976;11.858;2023-08-06T02:47:02;3.57;;;3.10;;
16822;SDS011;8528;49.976;11.858;2023-08-06T02:49:29;4.27;;;3.87;;
16822;SDS011;8528;49.976;11.858;2023-08-06T02:51:56;5.23;;;4.30;;
16822;SDS011;8528;49.976;11.858;2023-08-06T02:54:23;5.10;;;4.60;;
16822;SDS011;8528;49.976;11.858;2023-08-06T02:56:50;6.90;;;5.17;;
16822;SDS011;8528;49.976;11.858;2023-08-06T02:59:17;6.90;;;5.50;;
16822;SDS011;8528;49.976;11.858;2023-08-06T03:01:44;5.40;;;4.87;;
16822;SDS011;8528;49.976;11.858;2023-08-06T03:04:11;7.20;;;5.47;;
16822;SDS011;8528;49.976;11.858;2023-08-06T03:06:38;5.60;;;5.10;;
16822;SDS011;8528;49.976;11.858;2023-08-06T03:09:04;7.97;;;5.70;;
16822;SDS011;8528;49.976;11.858;2023-08-06T03:11:31;5.63;;;5.13;;
16822;SDS011;8528;49.976;11.858;2023-08-06T03:13:58;5.23;;;4.70;;
16822;SDS011;8528;49.976;11.858;2023-08-06T03:16:25;6.87;;;5.67;;
16822;SDS011;8528;49.976;11.858;2023-08-06T03:18:52;4.80;;;4.40;;
16822;SDS011;8528;49.976;11.858;2023-08-06T03:21:19;5.17;;;4.67;;
16822;SDS011;8528;49.976;11.858;2023-08-06T03:23:49;4.93;;;4.43;;
16822;SDS011;8528;49.976;11.858;2023-08-06T03:26:16;5.60;;;4.27;;
16822;SDS011;8528;49.976;11.858;2023-08-06T03:28:43;4.80;;;4.27;;
16822;SDS011;8528;49.976;11.858;2023-08-06T03:31:10;5.00;;;4.30;;
16822;SDS011;8528;49.976;11.858;2023-08-06T03:33:37;4.93;;;4.37;;
16822;SDS011;8528;49.976;11.858;2023-08-06T03:36:03;4.67;;;4.17;;
16822;SDS011;8528;49.976;11.858;2023-08-06T03:38:31;5.03;;;3.93;;
16822;SDS011;8528;49.976;11.858;2023-08-06T03:40:57;3.70;;;3.40;;
16822;SDS011;8528;49.976;11.858;2023-08-06T03:43:24;3.67;;;3.37;;
16822;SDS011;8528;49.976;11.858;2023-08-06T03:45:51;3.77;;;3.10;;
16822;SDS011;8528;49.976;11.858;2023-08-06T03:48:18;3.03;;;2.77;;
16822;SDS011;8528;49.976;11.858;2023-08-06T03:50:45;3.47;;;3.00;;
16822;SDS011;8528;49.976;11.858;2023-08-06T03:53:12;2.80;;;2.57;;
16822;SDS011;8528;49.976;11.858;2023-08-06T03:55:39;3.20;;;2.80;;
16822;SDS011;8528;49.976;11.858;2023-08-06T03:58:06;3.40;;;3.10;;
16822;SDS011;8528;49.976;11.858;2023-08-06T04:00:33;2.90;;;2.60;;
16822;SDS011;8528;49.976;11.858;2023-08-06T04:03:00;2.80;;;2.60;;
16822;SDS011;8528;49.976;11.858;2023-08-06T04:05:27;2.67;;;2.47;;
16822;SDS011;8528;49.976;11.858;2023-08-06T04:07:54;3.17;;;2.87;;
16822;SDS011;8528;49.976;11.858;2023-08-06T04:10:20;2.97;;;2.67;;
16822;SDS011;8528;49.976;11.858;2023-08-06T04:13:05;2.90;;;2.70;;
16822;SDS011;8528;49.976;11.858;2023-08-06T04:15:33;3.40;;;2.70;;
16822;SDS011;8528;49.976;11.858;2023-08-06T04:18:00;3.53;;;2.37;;
16822;SDS011;8528;49.976;11.858;2023-08-06T04:20:27;2.70;;;2.50;;
16822;SDS011;8528;49.976;11.858;2023-08-06T04:22:54;2.70;;;2.50;;
16822;SDS011;8528;49.976;11.858;2023-08-06T04:25:21;2.50;;;2.30;;
16822;SDS011;8528;49.976;11.858;2023-08-06T04:27:49;2.47;;;2.27;;
16822;SDS011;8528;49.976;11.858;2023-08-06T04:30:16;2.63;;;2.43;;
16822;SDS011;8528;49.976;11.858;2023-08-06T04:32:43;2.70;;;2.50;;
16822;SDS011;8528;49.976;11.858;2023-08-06T04:35:10;2.97;;;2.63;;
16822;SDS011;8528;49.976;11.858;2023-08-06T04:37:37;2.97;;;2.50;;
16822;SDS011;8528;49.976;11.858;2023-08-06T04:40:04;2.90;;;2.60;;
16822;SDS011;8528;49.976;11.858;2023-08-06T04:42:31;3.10;;;2.70;;
16822;SDS011;8528;49.976;11.858;2023-08-06T04:44:58;2.70;;;2.47;;
16822;SDS011;8528;49.976;11.858;2023-08-06T04:47:25;3.00;;;2.70;;
16822;SDS011;8528;49.976;11.858;2023-08-06T04:49:52;2.90;;;2.60;;
16822;SDS011;8528;49.976;11.858;2023-08-06T04:52:19;3.23;;;2.93;;
16822;SDS011;8528;49.976;11.858;2023-08-06T04:54:46;3.30;;;3.00;;
16822;SDS011;8528;49.976;11.858;2023-08-06T04:57:13;3.27;;;2.60;;
16822;SDS011;8528;49.976;11.858;2023-08-06T04:59:40;3.73;;;2.90;;
16822;SDS011;8528;49.976;11.858;2023-08-06T05:02:07;3.00;;;2.73;;
16822;SDS011;8528;49.976;11.858;2023-08-06T05:04:34;3.23;;;2.63;;
16822;SDS011;8528;49.976;11.858;2023-08-06T05:07:01;3.20;;;2.90;;
16822;SDS011;8528;49.976;11.858;2023-08-06T05:09:28;2.63;;;2.43;;
16822;SDS011;8528;49.976;11.858;2023-08-06T05:11:55;3.63;;;2.93;;
16822;SDS011;8528;49.976;11.858;2023-08-06T05:14:21;3.30;;;3.00;;
16822;SDS011;8528;49.976;11.858;2023-08-06T05:16:48;3.20;;;2.70;;
16822;SDS011;8528;49.976;11.858;2023-08-06T05:19:15;3.37;;;2.97;;
16822;SDS011;8528;49.976;11.858;2023-08-06T05:21:42;3.20;;;2.90;;
16822;SDS011;8528;49.976;11.858;2023-08-06T05:24:09;3.30;;;2.57;;
16822;SDS011;8528;49.976;11.858;2023-08-06T05:26:36;3.30;;;3.00;;
16822;SDS011;8528;49.976;11.858;2023-08-06T05:29:03;3.67;;;3.30;;
16822;SDS011;8528;49.976;11.858;2023-08-06T05:31:30;3.67;;;3.07;;
16822;SDS011;8528;49.976;11.858;2023-08-06T05:33:59;3.23;;;2.93;;
16822;SDS011;8528;49.976;11.858;2023-08-06T05:36:26;3.40;;;3.10;;
16822;SDS011;8528;49.976;11.858;2023-08-06T05:38:55;3.30;;;3.00;;
16822;SDS011;8528;49.976;11.858;2023-08-06T05:41:22;3.70;;;3.40;;
16822;SDS011;8528;49.976;11.858;2023-08-06T05:43:48;3.53;;;3.23;;
16822;SDS011;8528;49.976;11.858;2023-08-06T05:46:15;4.70;;;3.67;;
16822;SDS011;8528;49.976;11.858;2023-08-06T05:48:42;3.40;;;3.10;;
16822;SDS011;8528;49.976;11.858;2023-08-06T05:51:09;3.50;;;3.17;;
16822;SDS011;8528;49.976;11.858;2023-08-06T05:53:38;2.90;;;2.70;;
16822;SDS011;8528;49.976;11.858;2023-08-06T05:56:05;3.70;;;3.40;;
16822;SDS011;8528;49.976;11.858;2023-08-06T05:58:32;3.10;;;2.80;;
16822;SDS011;8528;49.976;11.858;2023-08-06T06:00:59;3.43;;;3.13;;
16822;SDS011;8528;49.976;11.858;2023-08-06T06:03:26;3.47;;;3.07;;
16822;SDS011;8528;49.976;11.858;2023-08-06T06:05:53;3.57;;;3.27;;
16822;SDS011;8528;49.976;11.858;2023-08-06T06:08:20;4.30;;;3.67;;
16822;SDS011;8528;49.976;11.858;2023-08-06T06:10:48;3.77;;;2.93;;
16822;SDS011;8528;49.976;11.858;2023-08-06T06:13:15;4.10;;;3.07;;
16822;SDS011;8528;49.976;11.858;2023-08-06T06:15:41;3.40;;;2.90;;
16822;SDS011;8528;49.976;11.858;2023-08-06T06:18:08;4.07;;;3.10;;
16822;SDS011;8528;49.976;11.858;2023-08-06T06:20:35;2.77;;;2.57;;
16822;SDS011;8528;49.976;11.858;2023-08-06T06:23:02;2.73;;;2.50;;
16822;SDS011;8528;49.976;11.858;2023-08-06T06:25:29;3.53;;;2.90;;
16822;SDS011;8528;49.976;11.858;2023-08-06T06:27:56;2.80;;;2.60;;
16822;SDS011;8528;49.976;11.858;2023-08-06T06:30:22;4.13;;;2.87;;
16822;SDS011;8528;49.976;11.858;2023-08-06T06:32:49;3.17;;;2.87;;
16822;SDS011;8528;49.976;11.858;2023-08-06T06:35:17;2.70;;;2.50;;
16822;SDS011;8528;49.976;11.858;2023-08-06T06:37:44;3.60;;;3.00;;
16822;SDS011;8528;49.976;11.858;2023-08-06T06:40:11;4.77;;;2.90;;
16822;SDS011;8528;49.976;11.858;2023-08-06T06:42:38;4.00;;;2.63;;
16822;SDS011;8528;49.976;11.858;2023-08-06T06:45:05;2.83;;;2.63;;
16822;SDS011;8528;49.976;11.858;2023-08-06T06:47:32;3.63;;;2.73;;
16822;SDS011;8528;49.976;11.858;2023-08-06T06:49:59;4.20;;;2.67;;
16822;SDS011;8528;49.976;11.858;2023-08-06T06:52:26;4.10;;;2.70;;
16822;SDS011;8528;49.976;11.858;2023-08-06T06:54:52;3.13;;;2.83;;
16822;SDS011;8528;49.976;11.858;2023-08-06T06:57:19;2.93;;;2.47;;
16822;SDS011;8528;49.976;11.858;2023-08-06T06:59:46;3.30;;;2.43;;
16822;SDS011;8528;49.976;11.858;2023-08-06T07:02:13;2.50;;;2.30;;
16822;SDS011;8528;49.976;11.858;2023-08-06T07:04:40;3.20;;;2.67;;
16822;SDS011;8528;49.976;11.858;2023-08-06T07:07:07;2.87;;;2.67;;
16822;SDS011;8528;49.976;11.858;2023-08-06T07:09:34;3.97;;;3.00;;
16822;SDS011;8528;49.976;11.858;2023-08-06T07:12:01;3.93;;;2.73;;
16822;SDS011;8528;49.976;11.858;2023-08-06T07:14:28;4.47;;;2.70;;
16822;SDS011;8528;49.976;11.858;2023-08-06T07:16:55;2.93;;;2.57;;
16822;SDS011;8528;49.976;11.858;2023-08-06T07:19:23;4.23;;;2.33;;
16822;SDS011;8528;49.976;11.858;2023-08-06T07:21:50;3.03;;;2.57;;
16822;SDS011;8528;49.976;11.858;2023-08-06T07:24:17;2.50;;;2.30;;
16822;SDS011;8528;49.976;11.858;2023-08-06T07:26:44;2.50;;;2.30;;
16822;SDS011;8528;49.976;11.858;2023-08-06T07:29:11;2.30;;;2.10;;
16822;SDS011;8528;49.976;11.858;2023-08-06T07:31:38;2.97;;;2.10;;
16822;SDS011;8528;49.976;11.858;2023-08-06T07:34:04;2.83;;;2.10;;
16822;SDS011;8528;49.976;11.858;2023-08-06T07:36:31;3.23;;;2.27;;
16822;SDS011;8528;49.976;11.858;2023-08-06T07:38:58;1.97;;;1.87;;
16822;SDS011;8528;49.976;11.858;2023-08-06T07:41:25;2.50;;;1.90;;
16822;SDS011;8528;49.976;11.858;2023-08-06T07:43:52;2.30;;;2.10;;
16822;SDS011;8528;49.976;11.858;2023-08-06T07:46:19;2.90;;;2.30;;
16822;SDS011;8528;49.976;11.858;2023-08-06T07:48:46;2.37;;;1.90;;
16822;SDS011;8528;49.976;11.858;2023-08-06T07:51:13;3.47;;;2.50;;
16822;SDS011;8528;49.976;11.858;2023-08-06T07:53:40;2.33;;;2.10;;
16822;SDS011;8528;49.976;11.858;2023-08-06T07:56:07;2.33;;;2.13;;
16822;SDS011;8528;49.976;11.858;2023-08-06T07:58:33;3.40;;;2.70;;
16822;SDS011;8528;49.976;11.858;2023-08-06T08:01:00;2.03;;;1.83;;
16822;SDS011;8528;49.976;11.858;2023-08-06T08:03:30;2.90;;;2.00;;
16822;SDS011;8528;49.976;11.858;2023-08-06T08:05:57;2.90;;;2.00;;
16822;SDS011;8528;49.976;11.858;2023-08-06T08:08:24;2.13;;;1.67;;
16822;SDS011;8528;49.976;11.858;2023-08-06T08:10:52;2.00;;;1.70;;
16822;SDS011;8528;49.976;11.858;2023-08-06T08:13:18;2.53;;;1.75;;
16822;SDS011;8528;49.976;11.858;2023-08-06T08:15:45;1.80;;;1.58;;
16822;SDS011;8528;49.976;11.858;2023-08-06T08:18:12;2.20;;;1.70;;
16822;SDS011;8528;49.976;11.858;2023-08-06T08:20:39;1.63;;;1.50;;
16822;SDS011;8528;49.976;11.858;2023-08-06T08:23:06;2.65;;;1.40;;
16822;SDS011;8528;49.976;11.858;2023-08-06T08:25:33;2.22;;;1.65;;
16822;SDS011;8528;49.976;11.858;2023-08-06T08:28:00;2.35;;;1.58;;
16822;SDS011;8528;49.976;11.858;2023-08-06T08:30:27;2.40;;;1.58;;
16822;SDS011;8528;49.976;11.858;2023-08-06T08:32:54;2.28;;;1.70;;
16822;SDS011;8528;49.976;11.858;2023-08-06T08:35:21;2.00;;;1.65;;
16822;SDS011;8528;49.976;11.858;2023-08-06T08:37:48;1.63;;;1.40;;
16822;SDS011;8528;49.976;11.858;2023-08-06T08:40:15;2.63;;;1.33;;
16822;SDS011;8528;49.976;11.858;2023-08-06T08:42:42;1.38;;;1.27;;
16822;SDS011;8528;49.976;11.858;2023-08-06T08:45:13;1.50;;;1.40;;
16822;SDS011;8528;49.976;11.858;2023-08-06T08:47:41;1.95;;;1.33;;
16822;SDS011;8528;49.976;11.858;2023-08-06T08:50:09;3.33;;;1.83;;
16822;SDS011;8528;49.976;11.858;2023-08-06T08:52:41;2.38;;;2.05;;
16822;SDS011;8528;49.976;11.858;2023-08-06T08:55:12;2.15;;;1.70;;
16822;SDS011;8528;49.976;11.858;2023-08-06T08:57:41;1.52;;;1.40;;
16822;SDS011;8528;49.976;11.858;2023-08-06T09:00:08;1.77;;;1.42;;
16822;SDS011;8528;49.976;11.858;2023-08-06T09:02:35;1.75;;;1.50;;
16822;SDS011;8528;49.976;11.858;2023-08-06T09:05:06;3.05;;;1.70;;
16822;SDS011;8528;49.976;11.858;2023-08-06T09:07:40;2.85;;;1.63;;
16822;SDS011;8528;49.976;11.858;2023-08-06T09:10:10;2.80;;;1.60;;
16822;SDS011;8528;49.976;11.858;2023-08-06T09:12:41;1.83;;;1.50;;
16822;SDS011;8528;49.976;11.858;2023-08-06T09:15:08;1.90;;;1.40;;
16822;SDS011;8528;49.976;11.858;2023-08-06T09:17:36;2.20;;;1.50;;
16822;SDS011;8528;49.976;11.858;2023-08-06T09:20:12;2.90;;;1.80;;
16822;SDS011;8528;49.976;11.858;2023-08-06T09:22:40;2.17;;;1.80;;
16822;SDS011;8528;49.976;11.858;2023-08-06T09:25:07;1.80;;;1.70;;
16822;SDS011;8528;49.976;11.858;2023-08-06T09:27:36;1.50;;;1.40;;
16822;SDS011;8528;49.976;11.858;2023-08-06T09:30:04;1.40;;;1.30;;
16822;SDS011;8528;49.976;11.858;2023-08-06T09:32:46;3.13;;;1.60;;
16822;SDS011;8528;49.976;11.858;2023-08-06T09:35:18;1.40;;;1.30;;
16822;SDS011;8528;49.976;11.858;2023-08-06T09:37:45;3.20;;;1.70;;
16822;SDS011;8528;49.976;11.858;2023-08-06T09:40:27;2.50;;;1.50;;
16822;SDS011;8528;49.976;11.858;2023-08-06T09:42:56;1.73;;;1.50;;
16822;SDS011;8528;49.976;11.858;2023-08-06T09:45:27;1.65;;;1.35;;
16822;SDS011;8528;49.976;11.858;2023-08-06T09:47:57;3.17;;;1.50;;
16822;SDS011;8528;49.976;11.858;2023-08-06T09:50:28;2.00;;;1.30;;
16822;SDS011;8528;49.976;11.858;2023-08-06T09:53:00;2.97;;;1.30;;
16822;SDS011;8528;49.976;11.858;2023-08-06T09:55:27;1.60;;;1.40;;
16822;SDS011;8528;49.976;11.858;2023-08-06T09:57:54;1.93;;;1.53;;
16822;SDS011;8528;49.976;11.858;2023-08-06T10:00:22;2.37;;;1.47;;
16822;SDS011;8528;49.976;11.858;2023-08-06T10:02:49;2.33;;;1.47;;
16822;SDS011;8528;49.976;11.858;2023-08-06T10:05:21;1.93;;;1.77;;
16822;SDS011;8528;49.976;11.858;2023-08-06T10:07:49;1.77;;;1.40;;
16822;SDS011;8528;49.976;11.858;2023-08-06T10:10:17;1.87;;;1.43;;
16822;SDS011;8528;49.976;11.858;2023-08-06T10:12:50;1.60;;;1.47;;
16822;SDS011;8528;49.976;11.858;2023-08-06T10:15:22;2.47;;;1.60;;
16822;SDS011;8528;49.976;11.858;2023-08-06T10:17:53;11.73;;;2.67;;
16822;SDS011;8528;49.976;11.858;2023-08-06T10:20:23;6.17;;;2.27;;
16822;SDS011;8528;49.976;11.858;2023-08-06T10:23:00;2.30;;;1.60;;
16822;SDS011;8528;49.976;11.858;2023-08-06T10:25:30;1.17;;;0.93;;
16822;SDS011;8528;49.976;11.858;2023-08-06T10:27:58;0.80;;;0.80;;
16822;SDS011;8528;49.976;11.858;2023-08-06T10:30:29;1.20;;;1.10;;
16822;SDS011;8528;49.976;11.858;2023-08-06T10:32:58;1.17;;;0.90;;
16822;SDS011;8528;49.976;11.858;2023-08-06T10:35:37;0.80;;;0.80;;
16822;SDS011;8528;49.976;11.858;2023-08-06T10:38:15;1.07;;;0.90;;
16822;SDS011;8528;49.976;11.858;2023-08-06T10:43:31;1.33;;;1.00;;
16822;SDS011;8528;49.976;11.858;2023-08-06T10:46:09;1.17;;;1.00;;
16822;SDS011;8528;49.976;11.858;2023-08-06T10:48:40;0.90;;;0.90;;
16822;SDS011;8528;49.976;11.858;2023-08-06T10:51:12;0.90;;;0.90;;
16822;SDS011;8528;49.976;11.858;2023-08-06T10:53:44;3.17;;;1.37;;
16822;SDS011;8528;49.976;11.858;2023-08-06T10:56:21;1.60;;;1.23;;
16822;SDS011;8528;49.976;11.858;2023-08-06T10:58:50;2.83;;;1.40;;
16822;SDS011;8528;49.976;11.858;2023-08-06T11:01:19;1.13;;;1.03;;
16822;SDS011;8528;49.976;11.858;2023-08-06T11:03:47;0.80;;;0.80;;
16822;SDS011;8528;49.976;11.858;2023-08-06T11:06:17;0.80;;;0.80;;
16822;SDS011;8528;49.976;11.858;2023-08-06T11:08:49;0.70;;;0.70;;
16822;SDS011;8528;49.976;11.858;2023-08-06T11:11:17;0.80;;;0.80;;
16822;SDS011;8528;49.976;11.858;2023-08-06T11:13:48;1.03;;;0.90;;
16822;SDS011;8528;49.976;11.858;2023-08-06T11:16:20;0.73;;;0.60;;
16822;SDS011;8528;49.976;11.858;2023-08-06T11:18:52;0.70;;;0.70;;
16822;SDS011;8528;49.976;11.858;2023-08-06T11:21:21;0.70;;;0.70;;
16822;SDS011;8528;49.976;11.858;2023-08-06T11:23:48;0.80;;;0.80;;
16822;SDS011;8528;49.976;11.858;2023-08-06T11:26:29;0.57;;;0.57;;
16822;SDS011;8528;49.976;11.858;2023-08-06T11:28:56;0.70;;;0.70;;
16822;SDS011;8528;49.976;11.858;2023-08-06T11:31:24;0.80;;;0.80;;
16822;SDS011;8528;49.976;11.858;2023-08-06T11:33:51;2.15;;;0.80;;
16822;SDS011;8528;49.976;11.858;2023-08-06T11:36:30;0.63;;;0.63;;
16822;SDS011;8528;49.976;11.858;2023-08-06T11:39:00;1.55;;;0.60;;
16822;SDS011;8528;49.976;11.858;2023-08-06T11:41:29;0.60;;;0.60;;
16822;SDS011;8528;49.976;11.858;2023-08-06T11:43:57;0.68;;;0.68;;
16822;SDS011;8528;49.976;11.858;2023-08-06T11:46:25;0.60;;;0.60;;
16822;SDS011;8528;49.976;11.858;2023-08-06T11:48:53;0.60;;;0.60;;
16822;SDS011;8528;49.976;11.858;2023-08-06T11:51:23;0.70;;;0.70;;
16822;SDS011;8528;49.976;11.858;2023-08-06T11:53:57;0.70;;;0.70;;
16822;SDS011;8528;49.976;11.858;2023-08-06T11:56:27;0.70;;;0.70;;
16822;SDS011;8528;49.976;11.858;2023-08-06T11:58:54;0.97;;;0.87;;
16822;SDS011;8528;49.976;11.858;2023-08-06T12:01:22;0.70;;;0.70;;
16822;SDS011;8528;49.976;11.858;2023-08-06T12:03:49;1.17;;;0.63;;
16822;SDS011;8528;49.976;11.858;2023-08-06T12:06:16;0.70;;;0.70;;
16822;SDS011;8528;49.976;11.858;2023-08-06T12:08:42;0.70;;;0.70;;
16822;SDS011;8528;49.976;11.858;2023-08-06T12:11:10;0.77;;;0.77;;
16822;SDS011;8528;49.976;11.858;2023-08-06T12:13:37;0.60;;;0.60;;
16822;SDS011;8528;49.976;11.858;2023-08-06T12:16:04;1.10;;;0.70;;
16822;SDS011;8528;49.976;11.858;2023-08-06T12:18:31;0.70;;;0.60;;
16822;SDS011;8528;49.976;11.858;2023-08-06T12:20:57;0.60;;;0.60;;
16822;SDS011;8528;49.976;11.858;2023-08-06T12:23:24;0.60;;;0.60;;
16822;SDS011;8528;49.976;11.858;2023-08-06T12:25:51;0.60;;;0.53;;
16822;SDS011;8528;49.976;11.858;2023-08-06T12:28:19;1.33;;;0.83;;
16822;SDS011;8528;49.976;11.858;2023-08-06T12:30:49;0.60;;;0.60;;
16822;SDS011;8528;49.976;11.858;2023-08-06T12:33:16;0.70;;;0.70;;
16822;SDS011;8528;49.976;11.858;2023-08-06T12:35:43;0.70;;;0.70;;
16822;SDS011;8528;49.976;11.858;2023-08-06T12:38:10;0.70;;;0.70;;
16822;SDS011;8528;49.976;11.858;2023-08-06T12:40:37;0.80;;;0.80;;
16822;SDS011;8528;49.976;11.858;2023-08-06T12:43:08;0.60;;;0.60;;
16822;SDS011;8528;49.976;11.858;2023-08-06T12:45:35;0.67;;;0.67;;
16822;SDS011;8528;49.976;11.858;2023-08-06T12:48:02;0.70;;;0.70;;
16822;SDS011;8528;49.976;11.858;2023-08-06T12:50:29;0.80;;;0.80;;
16822;SDS011;8528;49.976;11.858;2023-08-06T12:52:59;0.90;;;0.90;;
16822;SDS011;8528;49.976;11.858;2023-08-06T12:55:27;1.10;;;0.63;;
16822;SDS011;8528;49.976;11.858;2023-08-06T12:57:58;0.70;;;0.70;;
16822;SDS011;8528;49.976;11.858;2023-08-06T13:00:25;0.70;;;0.70;;
16822;SDS011;8528;49.976;11.858;2023-08-06T13:02:53;0.60;;;0.60;;
16822;SDS011;8528;49.976;11.858;2023-08-06T13:05:20;0.93;;;0.90;;
16822;SDS011;8528;49.976;11.858;2023-08-06T13:07:47;0.70;;;0.70;;
16822;SDS011;8528;49.976;11.858;2023-08-06T13:10:14;0.60;;;0.60;;
16822;SDS011;8528;49.976;11.858;2023-08-06T13:12:41;0.80;;;0.80;;
16822;SDS011;8528;49.976;11.858;2023-08-06T13:15:08;0.70;;;0.70;;
16822;SDS011;8528;49.976;11.858;2023-08-06T13:17:36;1.27;;;0.80;;
16822;SDS011;8528;49.976;11.858;2023-08-06T13:20:03;0.77;;;0.77;;
16822;SDS011;8528;49.976;11.858;2023-08-06T13:22:30;0.80;;;0.80;;
16822;SDS011;8528;49.976;11.858;2023-08-06T13:24:57;0.97;;;0.80;;
16822;SDS011;8528;49.976;11.858;2023-08-06T13:27:24;0.70;;;0.70;;
16822;SDS011;8528;49.976;11.858;2023-08-06T13:29:51;0.90;;;0.90;;
16822;SDS011;8528;49.976;11.858;2023-08-06T13:32:18;1.10;;;0.70;;
16822;SDS011;8528;49.976;11.858;2023-08-06T13:34:44;1.00;;;0.77;;
16822;SDS011;8528;49.976;11.858;2023-08-06T13:37:11;1.00;;;0.90;;
16822;SDS011;8528;49.976;11.858;2023-08-06T13:39:38;0.80;;;0.80;;
16822;SDS011;8528;49.976;11.858;2023-08-06T13:42:05;1.07;;;0.97;;
16822;SDS011;8528;49.976;11.858;2023-08-06T13:44:32;0.90;;;0.90;;
16822;SDS011;8528;49.976;11.858;2023-08-06T13:47:02;1.37;;;0.83;;
16822;SDS011;8528;49.976;11.858;2023-08-06T13:49:29;0.63;;;0.63;;
16822;SDS011;8528;49.976;11.858;2023-08-06T13:51:56;0.80;;;0.80;;
16822;SDS011;8528;49.976;11.858;2023-08-06T13:54:41;0.80;;;0.80;;
16822;SDS011;8528;49.976;11.858;2023-08-06T13:57:08;1.07;;;0.90;;
16822;SDS011;8528;49.976;11.858;2023-08-06T13:59:35;0.77;;;0.77;;
16822;SDS011;8528;49.976;11.858;2023-08-06T14:02:02;0.70;;;0.70;;
16822;SDS011;8528;49.976;11.858;2023-08-06T14:04:29;2.23;;;1.10;;
16822;SDS011;8528;49.976;11.858;2023-08-06T14:06:56;1.00;;;1.00;;
16822;SDS011;8528;49.976;11.858;2023-08-06T14:09:23;0.80;;;0.80;;
16822;SDS011;8528;49.976;11.858;2023-08-06T14:11:50;0.90;;;0.90;;
16822;SDS011;8528;49.976;11.858;2023-08-06T14:14:17;0.73;;;0.73;;
16822;SDS011;8528;49.976;11.858;2023-08-06T14:16:44;0.80;;;0.80;;
16822;SDS011;8528;49.976;11.858;2023-08-06T14:19:10;0.70;;;0.70;;
16822;SDS011;8528;49.976;11.858;2023-08-06T14:21:37;1.43;;;0.90;;
16822;SDS011;8528;49.976;11.858;2023-08-06T14:24:04;0.80;;;0.80;;
16822;SDS011;8528;49.976;11.858;2023-08-06T14:26:31;0.80;;;0.80;;
16822;SDS011;8528;49.976;11.858;2023-08-06T14:28:58;0.70;;;0.70;;
16822;SDS011;8528;49.976;11.858;2023-08-06T14:31:25;1.00;;;1.00;;
16822;SDS011;8528;49.976;11.858;2023-08-06T14:33:52;0.70;;;0.70;;
16822;SDS011;8528;49.976;11.858;2023-08-06T14:36:19;0.83;;;0.83;;
16822;SDS011;8528;49.976;11.858;2023-08-06T14:38:45;0.83;;;0.83;;
16822;SDS011;8528;49.976;11.858;2023-08-06T14:41:25;0.80;;;0.80;;
16822;SDS011;8528;49.976;11.858;2023-08-06T14:43:52;0.93;;;0.93;;
16822;SDS011;8528;49.976;11.858;2023-08-06T14:46:20;1.00;;;0.90;;
16822;SDS011;8528;49.976;11.858;2023-08-06T14:48:47;0.80;;;0.80;;
16822;SDS011;8528;49.976;11.858;2023-08-06T14:51:14;0.80;;;0.80;;
16822;SDS011;8528;49.976;11.858;2023-08-06T14:53:40;1.30;;;0.93;;
16822;SDS011;8528;49.976;11.858;2023-08-06T14:56:07;1.47;;;1.10;;
16822;SDS011;8528;49.976;11.858;2023-08-06T14:58:34;0.90;;;0.90;;
16822;SDS011;8528;49.976;11.858;2023-08-06T15:01:01;0.80;;;0.80;;
16822;SDS011;8528;49.976;11.858;2023-08-06T15:03:28;0.70;;;0.70;;